Time;durP1;ratioP1;P1;durP2;ratioP2;P2;SDS_P1;SDS_P2;PMS_P1;PMS_P2;Temp;Humidity;BMP_temperature;BMP_pressure;BME280_temperature;BME280_humidity;BME280_pressure;Samples;Min_cycle;Max_cycle;Signal;HPM_P1;HPM_P2
2022/05/09 00:00:15;;;;;;;24.13;8.10;;;;;;;-145.18;100.00;60484.78;5033784;28;20048;-68
2022/05/09 00:02:40;;;;;;;25.83;9.20;;;;;;;-145.18;100.00;60484.78;5032151;28;20026;-68
2022/05/09 00:05:09;;;;;;;30.03;8.50;;;;;;;-145.18;100.00;60484.78;5043807;28;20081;-68
2022/05/09 00:07:35;;;;;;;30.40;8.83;;;;;;;-145.18;100.00;60484.78;5043378;28;20478;-68
2022/05/09 00:10:00;;;;;;;30.70;9.97;;;;;;;-145.18;100.00;60484.78;5035866;28;20024;-68
2022/05/09 00:12:26;;;;;;;28.23;8.67;;;;;;;-145.18;100.00;60484.78;5037368;28;20502;-68
2022/05/09 00:15:12;;;;;;;27.17;8.53;;;;;;;-145.18;100.00;60484.78;5050795;28;20025;-68
2022/05/09 00:17:38;;;;;;;28.97;8.60;;;;;;;-145.18;100.00;60484.78;5041907;28;20037;-68
2022/05/09 00:20:04;;;;;;;24.90;8.77;;;;;;;-145.18;100.00;60484.78;5050489;28;20385;-68
2022/05/09 00:22:30;;;;;;;36.10;10.13;;;;;;;-145.18;100.00;60484.78;5049646;28;20029;-68
2022/05/09 00:24:59;;;;;;;28.37;8.80;;;;;;;-145.18;100.00;60484.78;5046961;28;20025;-68
2022/05/09 00:27:25;;;;;;;28.73;9.23;;;;;;;-145.18;100.00;60484.78;5041433;28;20041;-68
2022/05/09 00:29:50;;;;;;;29.80;9.60;;;;;;;-145.18;100.00;60484.78;5043574;28;20098;-68
2022/05/09 00:32:16;;;;;;;31.17;8.93;;;;;;;-145.18;100.00;60484.78;5034022;28;20040;-68
2022/05/09 00:34:41;;;;;;;24.50;8.63;;;;;;;-145.18;100.00;60484.78;5041289;28;20053;-68
2022/05/09 00:37:06;;;;;;;31.93;9.60;;;;;;;-145.18;100.00;60484.78;5033818;28;20033;-68
2022/05/09 00:39:34;;;;;;;32.43;9.47;;;;;;;-145.18;100.00;60484.78;5047413;28;20029;-68
2022/05/09 00:42:10;;;;;;;29.13;9.87;;;;;;;-145.18;100.00;60484.78;5034031;28;20090;-68
2022/05/09 00:44:36;;;;;;;33.77;9.67;;;;;;;-145.18;100.00;60484.78;5033664;28;20028;-68
2022/05/09 00:47:02;;;;;;;30.73;9.00;;;;;;;-145.18;100.00;60484.78;5046495;28;20078;-68
2022/05/09 00:49:33;;;;;;;33.33;9.53;;;;;;;-145.18;100.00;60484.78;5038179;28;20081;-68
2022/05/09 00:52:12;;;;;;;36.15;9.73;;;;;;;-145.18;100.00;60484.78;5037049;28;20029;-68
2022/05/09 00:54:54;;;;;;;29.47;8.80;;;;;;;-145.18;100.00;60484.78;5036401;28;20517;-68
2022/05/09 00:57:29;;;;;;;27.92;8.70;;;;;;;-145.18;100.00;60484.78;5033140;28;20104;-68
2022/05/09 01:00:03;;;;;;;32.20;8.90;;;;;;;-145.18;100.00;60484.78;5040700;28;20117;-68
2022/05/09 01:02:29;;;;;;;29.50;10.07;;;;;;;-145.18;100.00;60484.78;5032807;28;20132;-68
2022/05/09 01:04:57;;;;;;;31.17;9.17;;;;;;;-145.18;100.00;60484.78;5033622;28;20144;-68
2022/05/09 01:07:24;;;;;;;31.07;9.73;;;;;;;-145.18;100.00;60484.78;5034641;28;20116;-68
2022/05/09 01:09:50;;;;;;;30.63;9.23;;;;;;;-145.18;100.00;60484.78;5039484;28;20079;-68
2022/05/09 01:12:24;;;;;;;30.87;9.73;;;;;;;-145.18;100.00;60484.78;5038190;28;20081;-68
2022/05/09 01:14:50;;;;;;;32.33;10.27;;;;;;;-145.18;100.00;60484.78;5035073;28;20389;-68
2022/05/09 01:17:17;;;;;;;39.23;10.30;;;;;;;-145.18;100.00;60484.78;5032638;28;20029;-68
2022/05/09 01:19:44;;;;;;;36.87;10.80;;;;;;;-145.18;100.00;60484.78;5045839;28;20473;-68
2022/05/09 01:22:18;;;;;;;28.17;10.30;;;;;;;-145.18;100.00;60484.78;5037081;28;20059;-68
2022/05/09 01:24:43;;;;;;;33.23;10.00;;;;;;;-145.18;100.00;60484.78;5034935;28;20469;-68
2022/05/09 01:27:09;;;;;;;33.83;10.70;;;;;;;-145.18;100.00;60484.78;5037874;28;20025;-68
2022/05/09 01:30:08;;;;;;;31.13;10.70;;;;;;;-145.18;100.00;60484.78;5042270;28;20549;-68
2022/05/09 01:32:57;;;;;;;36.60;11.13;;;;;;;-145.18;100.00;60484.78;5034289;28;20035;-68
2022/05/09 01:35:42;;;;;;;26.50;10.40;;;;;;;-145.18;100.00;60484.78;5038413;28;20538;-68
2022/05/09 01:38:25;;;;;;;36.43;11.83;;;;;;;-145.18;100.00;60484.78;5033139;28;20171;-68
2022/05/09 01:40:50;;;;;;;39.10;11.93;;;;;;;-145.18;100.00;60484.78;5041290;28;20052;-68
2022/05/09 01:43:37;;;;;;;36.77;11.67;;;;;;;-145.18;100.00;60484.78;5034356;28;20048;-68
2022/05/09 01:46:05;;;;;;;31.60;11.87;;;;;;;-145.18;100.00;60484.78;5034615;28;20029;-68
2022/05/09 01:51:16;;;;;;;37.83;11.67;;;;;;;-145.18;100.00;60484.78;5035524;28;20113;-68
2022/05/09 01:53:45;;;;;;;33.93;11.57;;;;;;;-145.18;100.00;60484.78;5038092;28;20382;-68
2022/05/09 01:56:13;;;;;;;43.23;12.33;;;;;;;-145.18;100.00;60484.78;5040818;28;20501;-68
2022/05/09 01:58:38;;;;;;;34.27;11.60;;;;;;;-145.18;100.00;60484.78;5045439;28;20247;-68
2022/05/09 02:01:06;;;;;;;37.07;11.63;;;;;;;-145.18;100.00;60484.78;5034348;28;20021;-68
2022/05/09 02:03:32;;;;;;;33.50;11.93;;;;;;;-145.18;100.00;60484.78;5043004;28;20025;-68
2022/05/09 02:05:57;;;;;;;27.63;11.07;;;;;;;-145.18;100.00;60484.78;5039402;28;20052;-68
2022/05/09 02:08:22;;;;;;;31.80;12.00;;;;;;;-145.18;100.00;60484.78;5042850;28;20024;-68
2022/05/09 02:10:48;;;;;;;44.03;12.03;;;;;;;-145.18;100.00;60484.78;5038065;28;20100;-68
2022/05/09 02:13:13;;;;;;;33.13;12.67;;;;;;;-145.18;100.00;60484.78;5042230;28;20029;-68
2022/05/09 02:15:38;;;;;;;40.67;12.43;;;;;;;-145.18;100.00;60484.78;5039568;28;20025;-68
2022/05/09 02:18:04;;;;;;;31.27;12.37;;;;;;;-145.18;100.00;60484.78;5046755;28;20556;-68
2022/05/09 02:20:29;;;;;;;36.27;12.87;;;;;;;-145.18;100.00;60484.78;5039468;28;20021;-68
2022/05/09 02:22:55;;;;;;;46.80;13.00;;;;;;;-145.18;100.00;60484.78;5037651;28;20021;-68
2022/05/09 02:25:29;;;;;;;42.20;12.63;;;;;;;-145.18;100.00;60484.78;5037407;28;20472;-68
2022/05/09 02:28:03;;;;;;;36.17;12.77;;;;;;;-145.18;100.00;60484.78;5038372;28;20020;-68
2022/05/09 02:30:29;;;;;;;38.57;14.17;;;;;;;-145.18;100.00;60484.78;5040040;28;20050;-68
2022/05/09 02:32:55;;;;;;;42.43;12.93;;;;;;;-145.18;100.00;60484.78;5031416;28;20104;-68
2022/05/09 02:35:21;;;;;;;48.57;14.40;;;;;;;-145.18;100.00;60484.78;5039938;28;20116;-68
2022/05/09 02:37:49;;;;;;;45.73;14.20;;;;;;;-145.18;100.00;60484.78;5040836;28;20496;-68
2022/05/09 02:40:15;;;;;;;34.67;13.07;;;;;;;-145.18;100.00;60484.78;5040501;28;20026;-68
2022/05/09 02:42:41;;;;;;;38.67;13.00;;;;;;;-145.18;100.00;60484.78;5041082;28;20087;-68
2022/05/09 02:45:07;;;;;;;44.13;14.10;;;;;;;-145.18;100.00;60484.78;5032521;28;20030;-68
2022/05/09 02:47:32;;;;;;;33.00;13.40;;;;;;;-145.18;100.00;60484.78;5043069;28;20092;-68
2022/05/09 02:49:58;;;;;;;49.63;15.03;;;;;;;-145.18;100.00;60484.78;5039483;28;20545;-68
2022/05/09 02:52:24;;;;;;;43.97;13.83;;;;;;;-145.18;100.00;60484.78;5039157;28;20017;-68
2022/05/09 02:54:49;;;;;;;42.83;14.03;;;;;;;-145.18;100.00;60484.78;5043038;28;20807;-68
2022/05/09 02:57:14;;;;;;;36.30;13.40;;;;;;;-145.18;100.00;60484.78;5032978;28;20055;-68
2022/05/09 02:59:40;;;;;;;40.30;12.73;;;;;;;-145.18;100.00;60484.78;5047369;28;20629;-68
2022/05/09 03:02:07;;;;;;;33.50;12.70;;;;;;;-145.18;100.00;60484.78;5030880;28;20112;-68
2022/05/09 03:04:39;;;;;;;36.90;12.10;;;;;;;-145.18;100.00;60484.78;5036053;28;20033;-68
2022/05/09 03:07:08;;;;;;;38.28;12.88;;;;;;;-145.18;100.00;60484.78;5033676;28;20025;-68
2022/05/09 03:09:34;;;;;;;34.00;11.60;;;;;;;-145.18;100.00;60484.78;5033781;28;20064;-68
2022/05/09 03:11:59;;;;;;;34.97;12.17;;;;;;;-145.18;100.00;60484.78;5048144;28;20060;-68
2022/05/09 03:14:25;;;;;;;35.60;11.63;;;;;;;-145.18;100.00;60484.78;5043727;28;20079;-68
2022/05/09 03:16:50;;;;;;;32.00;11.53;;;;;;;-145.18;100.00;60484.78;5039528;28;20075;-68
2022/05/09 03:19:16;;;;;;;40.30;11.83;;;;;;;-145.18;100.00;60484.78;5034312;28;20021;-68
2022/05/09 03:21:42;;;;;;;37.63;12.80;;;;;;;-145.18;100.00;60484.78;5041590;28;20033;-68
2022/05/09 03:24:07;;;;;;;43.63;12.73;;;;;;;-145.18;100.00;60484.78;5042079;28;20461;-68
2022/05/09 03:26:33;;;;;;;45.90;12.63;;;;;;;-145.18;100.00;60484.78;5051173;28;20031;-68
2022/05/09 03:28:59;;;;;;;33.03;11.47;;;;;;;-145.18;100.00;60484.78;5040250;28;20501;-68
2022/05/09 03:31:24;;;;;;;31.83;11.53;;;;;;;-145.18;100.00;60484.78;5036025;28;20032;-68
2022/05/09 03:33:50;;;;;;;41.60;12.10;;;;;;;-145.18;100.00;60484.78;5045952;28;20430;-68
2022/05/09 03:36:15;;;;;;;39.83;12.53;;;;;;;-145.18;100.00;60484.78;5034815;28;20060;-68
2022/05/09 03:38:41;;;;;;;35.40;12.43;;;;;;;-145.18;100.00;60484.78;5047583;28;20452;-68
2022/05/09 03:41:06;;;;;;;37.20;12.17;;;;;;;-145.18;100.00;60484.78;5045747;28;20029;-68
2022/05/09 03:43:32;;;;;;;29.03;11.50;;;;;;;-145.18;100.00;60484.78;5049056;28;20055;-68
2022/05/09 03:45:58;;;;;;;35.73;12.47;;;;;;;-145.18;100.00;60484.78;5038459;28;20032;-68
2022/05/09 03:48:24;;;;;;;41.50;12.43;;;;;;;-145.18;100.00;60484.78;5033079;28;20401;-68
2022/05/09 03:50:50;;;;;;;40.40;12.30;;;;;;;-145.18;100.00;60484.78;5047289;28;20033;-68
2022/05/09 03:53:15;;;;;;;35.43;12.10;;;;;;;-145.18;100.00;60484.78;5036155;28;20036;-68
2022/05/09 03:55:41;;;;;;;32.90;12.87;;;;;;;-145.18;100.00;60484.78;5039420;28;20062;-68
2022/05/09 03:58:07;;;;;;;34.27;11.53;;;;;;;-145.18;100.00;60484.78;5044851;28;20017;-68
2022/05/09 04:00:35;;;;;;;29.87;10.20;;;;;;;-145.18;100.00;60484.78;5042409;28;20744;-68
2022/05/09 04:03:02;;;;;;;30.63;10.73;;;;;;;-145.18;100.00;60484.78;5042205;28;20044;-68
2022/05/09 04:05:30;;;;;;;28.60;9.70;;;;;;;-145.18;100.00;60484.78;5045005;28;20036;-68
2022/05/09 04:07:57;;;;;;;29.37;10.77;;;;;;;-145.18;100.00;60484.78;5037495;28;20018;-68
2022/05/09 04:10:27;;;;;;;30.47;9.87;;;;;;;-145.18;100.00;60484.78;5042821;28;20033;-68
2022/05/09 04:12:53;;;;;;;30.07;9.27;;;;;;;-145.18;100.00;60484.78;5033917;28;20030;-68
2022/05/09 04:18:04;;;;;;;25.63;9.00;;;;;;;-145.18;100.00;60484.78;5042760;28;20108;-68
2022/05/09 04:20:30;;;;;;;25.30;8.50;;;;;;;-145.18;100.00;60484.78;5031789;28;20441;-68
2022/05/09 04:22:57;;;;;;;27.93;8.80;;;;;;;-145.18;100.00;60484.78;5036576;28;20458;-68
2022/05/09 04:25:22;;;;;;;28.27;8.53;;;;;;;-145.18;100.00;60484.78;5037321;28;20040;-68
2022/05/09 04:27:49;;;;;;;22.13;8.40;;;;;;;-145.18;100.00;60484.78;5043586;28;20461;-68
2022/05/09 04:30:15;;;;;;;22.20;7.60;;;;;;;-145.18;100.00;60484.78;5035897;28;20028;-68
2022/05/09 04:32:41;;;;;;;22.47;7.37;;;;;;;-145.18;100.00;60484.78;5038209;28;20637;-68
2022/05/09 04:35:14;;;;;;;20.57;6.70;;;;;;;-145.18;100.00;60484.78;5036603;28;20025;-68
2022/05/09 04:37:42;;;;;;;21.83;7.50;;;;;;;-145.18;100.00;60484.78;5037992;28;20036;-68
2022/05/09 04:40:08;;;;;;;18.20;6.83;;;;;;;-145.18;100.00;60484.78;5032924;28;20025;-68
2022/05/09 04:42:34;;;;;;;18.47;5.93;;;;;;;-145.18;100.00;60484.78;5042289;28;20746;-68
2022/05/09 04:44:59;;;;;;;17.93;6.30;;;;;;;-145.18;100.00;60484.78;5040453;28;20033;-68
2022/05/09 04:47:26;;;;;;;17.77;6.13;;;;;;;-145.18;100.00;60484.78;5039202;28;20045;-68
2022/05/09 04:49:52;;;;;;;14.83;5.57;;;;;;;-145.18;100.00;60484.78;5038274;28;20511;-68
2022/05/09 04:52:17;;;;;;;18.70;5.80;;;;;;;-145.18;100.00;60484.78;5036626;28;20041;-68
2022/05/09 04:54:42;;;;;;;18.57;6.13;;;;;;;-145.18;100.00;60484.78;5035576;28;20135;-68
2022/05/09 04:57:08;;;;;;;12.97;4.93;;;;;;;-145.18;100.00;60484.78;5035320;28;20432;-68
2022/05/09 04:59:33;;;;;;;16.53;5.47;;;;;;;-145.18;100.00;60484.78;5040335;28;20028;-68
2022/05/09 05:01:58;;;;;;;12.60;4.70;;;;;;;-145.18;100.00;60484.78;5032821;28;20481;-68
2022/05/09 05:04:24;;;;;;;11.17;5.67;;;;;;;-145.18;100.00;60484.78;5032064;28;20456;-68
2022/05/09 05:06:49;;;;;;;14.63;4.90;;;;;;;-145.18;100.00;60484.78;5041725;28;20029;-68
2022/05/09 05:09:15;;;;;;;14.70;5.07;;;;;;;-145.18;100.00;60484.78;5038148;28;20065;-68
2022/05/09 05:11:40;;;;;;;15.97;5.13;;;;;;;-145.18;100.00;60484.78;5042144;28;20526;-68
2022/05/09 05:14:05;;;;;;;14.77;4.47;;;;;;;-145.18;100.00;60484.78;5034308;28;20036;-68
2022/05/09 05:19:15;;;;;;;12.83;4.20;;;;;;;-145.18;100.00;60484.78;5035533;28;20090;-68
2022/05/09 05:21:43;;;;;;;10.93;3.97;;;;;;;-145.18;100.00;60484.78;5031519;28;20026;-68
2022/05/09 05:24:09;;;;;;;13.33;4.20;;;;;;;-145.18;100.00;60484.78;5034486;28;20029;-68
2022/05/09 05:26:35;;;;;;;13.77;4.40;;;;;;;-145.18;100.00;60484.78;5035799;28;21859;-68
2022/05/09 05:29:00;;;;;;;11.63;4.70;;;;;;;-145.18;100.00;60484.78;5038042;28;20051;-68
2022/05/09 05:31:25;;;;;;;12.87;4.30;;;;;;;-145.18;100.00;60484.78;5034393;28;20696;-68
2022/05/09 05:33:51;;;;;;;14.00;4.37;;;;;;;-145.18;100.00;60484.78;5032017;28;20108;-68
2022/05/09 05:36:16;;;;;;;11.93;4.60;;;;;;;-145.18;100.00;60484.78;5032993;28;20181;-68
2022/05/09 05:38:43;;;;;;;13.77;4.20;;;;;;;-145.18;100.00;60484.78;5031333;28;20104;-68
2022/05/09 05:41:09;;;;;;;10.83;3.80;;;;;;;-145.18;100.00;60484.78;5034352;28;20025;-68
2022/05/09 05:43:34;;;;;;;14.17;4.30;;;;;;;-145.18;100.00;60484.78;5033676;28;20083;-68
2022/05/09 05:45:59;;;;;;;13.20;4.07;;;;;;;-145.18;100.00;60484.78;5049888;28;20033;-68
2022/05/09 05:48:25;;;;;;;13.70;4.70;;;;;;;-145.18;100.00;60484.78;5046047;28;20469;-68
2022/05/09 05:50:52;;;;;;;12.17;4.50;;;;;;;-145.18;100.00;60484.78;5036407;28;20033;-68
2022/05/09 05:53:18;;;;;;;11.47;3.90;;;;;;;-145.18;100.00;60484.78;5044723;28;20038;-68
2022/05/09 05:55:44;;;;;;;14.07;4.20;;;;;;;-145.18;100.00;60484.78;5033995;28;20029;-68
2022/05/09 05:58:09;;;;;;;12.15;3.85;;;;;;;-145.18;100.00;60484.78;5031377;28;20036;-68
2022/05/09 06:00:36;;;;;;;22.63;5.35;;;;;;;-145.18;100.00;60484.78;5037692;28;20355;-68
2022/05/09 06:03:02;;;;;;;11.27;3.63;;;;;;;-145.18;100.00;60484.78;5048736;28;20029;-68
2022/05/09 06:05:27;;;;;;;8.80;3.92;;;;;;;-145.18;100.00;60484.78;5048422;28;20036;-68
2022/05/09 06:07:55;;;;;;;15.95;4.13;;;;;;;-145.18;100.00;60484.78;5048988;28;20393;-68
2022/05/09 06:10:21;;;;;;;10.18;4.03;;;;;;;-145.18;100.00;60484.78;5041031;28;20505;-68
2022/05/09 06:12:47;;;;;;;11.30;4.28;;;;;;;-145.18;100.00;60484.78;5031169;28;20036;-67
2022/05/09 06:15:32;;;;;;;10.27;3.70;;;;;;;-145.18;100.00;60484.78;5035013;28;20452;-67
2022/05/09 06:17:59;;;;;;;12.88;3.83;;;;;;;-145.18;100.00;60484.78;5039219;28;20041;-68
2022/05/09 06:20:26;;;;;;;12.80;3.90;;;;;;;-145.18;100.00;60484.78;5031871;28;20033;-68
2022/05/09 06:22:54;;;;;;;11.35;3.88;;;;;;;-145.18;100.00;60484.78;5030956;28;20029;-67
2022/05/09 06:25:21;;;;;;;14.27;3.95;;;;;;;-145.18;100.00;60484.78;5033675;28;20064;-67
2022/05/09 06:27:47;;;;;;;9.50;4.00;;;;;;;-145.18;100.00;60484.78;5035848;28;20032;-67
2022/05/09 06:30:15;;;;;;;9.48;3.83;;;;;;;-145.18;100.00;60484.78;5036973;28;20041;-67
2022/05/09 06:32:41;;;;;;;11.13;3.60;;;;;;;-145.18;100.00;60484.78;5031419;28;20025;-67
2022/05/09 06:35:10;;;;;;;12.48;3.50;;;;;;;-145.18;100.00;60484.78;5042752;28;20031;-67
2022/05/09 06:37:38;;;;;;;9.38;3.58;;;;;;;-145.18;100.00;60484.78;5030306;28;20057;-67
2022/05/09 06:40:05;;;;;;;8.35;3.47;;;;;;;-145.18;100.00;60484.78;5032995;28;20032;-67
2022/05/09 06:42:31;;;;;;;9.63;3.63;;;;;;;-145.18;100.00;60484.78;5030029;28;20112;-67
2022/05/09 06:44:56;;;;;;;8.52;3.22;;;;;;;-145.18;100.00;60484.78;5047644;28;20661;-67
2022/05/09 06:47:22;;;;;;;11.45;3.63;;;;;;;-145.18;100.00;60484.78;5031771;28;20025;-67
2022/05/09 06:49:48;;;;;;;14.60;3.50;;;;;;;-145.18;100.00;60484.78;5032058;28;20136;-67
2022/05/09 06:52:13;;;;;;;8.68;3.10;;;;;;;-145.18;100.00;60484.78;5037377;28;20488;-67
2022/05/09 06:54:39;;;;;;;10.68;3.17;;;;;;;-145.18;100.00;60484.78;5033471;28;20041;-67
2022/05/09 06:57:05;;;;;;;10.65;3.10;;;;;;;-145.18;100.00;60484.78;5032665;28;20098;-67
2022/05/09 06:59:34;;;;;;;6.78;2.88;;;;;;;-145.18;100.00;60484.78;5030549;28;20477;-67
2022/05/09 07:02:00;;;;;;;12.85;3.03;;;;;;;-145.18;100.00;60484.78;5034420;28;20660;-67
2022/05/09 07:04:26;;;;;;;9.43;3.20;;;;;;;-145.18;100.00;60484.78;5041241;28;20633;-67
2022/05/09 07:06:51;;;;;;;12.70;3.15;;;;;;;-145.18;100.00;60484.78;5042631;28;20028;-67
2022/05/09 07:09:17;;;;;;;9.75;2.90;;;;;;;-145.18;100.00;60484.78;5047717;28;20037;-67
2022/05/09 07:11:42;;;;;;;9.65;3.00;;;;;;;-145.18;100.00;60484.78;5033668;28;20075;-67
2022/05/09 07:14:08;;;;;;;9.75;2.90;;;;;;;-145.18;100.00;60484.78;5030278;28;20095;-67
2022/05/09 07:16:34;;;;;;;9.75;2.90;;;;;;;-145.18;100.00;60484.78;5033892;28;20029;-67
2022/05/09 07:19:00;;;;;;;8.65;3.05;;;;;;;-145.18;100.00;60484.78;5040598;28;20053;-67
2022/05/09 07:21:26;;;;;;;11.93;3.17;;;;;;;-145.18;100.00;60484.78;5036145;28;20064;-67
2022/05/09 07:23:51;;;;;;;9.93;3.28;;;;;;;-145.18;100.00;60484.78;5031662;28;20037;-67
2022/05/09 07:26:16;;;;;;;9.75;2.65;;;;;;;-145.18;100.00;60484.78;5042739;28;20076;-67
2022/05/09 07:28:42;;;;;;;8.40;3.05;;;;;;;-145.18;100.00;60484.78;5047972;28;20021;-67
2022/05/09 07:31:08;;;;;;;10.07;2.92;;;;;;;-145.18;100.00;60484.78;5039499;28;20037;-67
2022/05/09 07:33:35;;;;;;;9.95;2.80;;;;;;;-145.18;100.00;60484.78;5040001;28;20029;-67
2022/05/09 07:36:01;;;;;;;8.88;2.70;;;;;;;-145.18;100.00;60484.78;5038791;28;20500;-67
2022/05/09 07:38:26;;;;;;;8.38;2.55;;;;;;;-145.18;100.00;60484.78;5029735;28;20029;-67
2022/05/09 07:40:52;;;;;;;9.20;2.88;;;;;;;-145.18;100.00;60484.78;5037884;28;20032;-67
2022/05/09 07:43:23;;;;;;;7.30;2.60;;;;;;;-145.18;100.00;60484.78;5039152;28;20391;-67
2022/05/09 07:45:49;;;;;;;9.73;2.58;;;;;;;-145.18;100.00;60484.78;5045468;28;20354;-67
2022/05/09 07:48:16;;;;;;;7.55;2.72;;;;;;;-145.18;100.00;60484.78;5031802;28;20075;-67
2022/05/09 07:50:41;;;;;;;11.82;2.70;;;;;;;-145.18;100.00;60484.78;5030255;28;20057;-68
2022/05/09 07:53:29;;;;;;;8.75;3.03;;;;;;;-145.18;100.00;60484.78;5031166;28;20064;-68
2022/05/09 07:55:56;;;;;;;9.00;3.05;;;;;;;-145.18;100.00;60484.78;5041323;28;20445;-67
2022/05/09 07:58:22;;;;;;;10.35;2.92;;;;;;;-145.18;100.00;60484.78;5031987;28;20021;-67
2022/05/09 08:00:48;;;;;;;10.00;2.97;;;;;;;-145.18;100.00;60484.78;5038130;28;20485;-67
2022/05/09 08:03:15;;;;;;;9.25;3.08;;;;;;;-145.18;100.00;60484.78;5033417;28;20079;-67
2022/05/09 08:05:41;;;;;;;15.90;2.72;;;;;;;-145.18;100.00;60484.78;5034276;28;20029;-67
2022/05/09 08:08:06;;;;;;;9.15;2.70;;;;;;;-145.18;100.00;60484.78;5038656;28;20021;-67
2022/05/09 08:10:32;;;;;;;6.93;2.35;;;;;;;-145.18;100.00;60484.78;5035198;28;20474;-67
2022/05/09 08:12:58;;;;;;;6.65;2.50;;;;;;;-145.18;100.00;60484.78;5033161;28;20026;-67
2022/05/09 08:15:26;;;;;;;10.40;2.67;;;;;;;-145.18;100.00;60484.78;5049102;28;20038;-67
2022/05/09 08:17:52;;;;;;;7.70;2.13;;;;;;;-145.18;100.00;60484.78;5033932;28;20067;-66
2022/05/09 08:20:19;;;;;;;7.35;2.20;;;;;;;-145.18;100.00;60484.78;5044010;28;20457;-67
2022/05/09 08:22:45;;;;;;;8.10;2.42;;;;;;;-145.18;100.00;60484.78;5035656;28;20382;-67
2022/05/09 08:25:13;;;;;;;10.52;2.70;;;;;;;-145.18;100.00;60484.78;5034497;28;20039;-67
2022/05/09 08:27:39;;;;;;;13.07;2.58;;;;;;;-145.18;100.00;60484.78;5032717;28;20086;-67
2022/05/09 08:30:06;;;;;;;5.90;1.80;;;;;;;-145.18;100.00;60484.78;5035147;28;20029;-67
2022/05/09 08:32:31;;;;;;;5.80;1.80;;;;;;;-145.18;100.00;60484.78;5032578;28;20393;-67
2022/05/09 08:34:57;;;;;;;6.60;2.10;;;;;;;-145.18;100.00;60484.78;5037407;28;20029;-67
2022/05/09 08:37:24;;;;;;;12.82;2.40;;;;;;;-145.18;100.00;60484.78;5051192;28;20040;-67
2022/05/09 08:39:49;;;;;;;8.73;2.22;;;;;;;-145.18;100.00;60484.78;5051411;28;20425;-67
2022/05/09 08:42:21;;;;;;;6.03;2.20;;;;;;;-145.18;100.00;60484.78;5032414;28;20036;-67
2022/05/09 08:45:01;;;;;;;7.72;2.10;;;;;;;-145.18;100.00;60484.78;5033843;28;20029;-67
2022/05/09 08:47:49;;;;;;;6.68;2.30;;;;;;;-145.18;100.00;60484.78;5032727;28;20509;-67
2022/05/09 08:50:51;;;;;;;6.90;2.25;;;;;;;-145.18;100.00;60484.78;5041940;28;20044;-67
2022/05/09 08:53:23;;;;;;;8.90;2.30;;;;;;;-145.18;100.00;60484.78;5032838;28;20511;-67
2022/05/09 08:55:51;;;;;;;5.68;1.92;;;;;;;-145.18;100.00;60484.78;5034169;28;20033;-67
2022/05/09 08:58:39;;;;;;;6.65;2.10;;;;;;;-145.18;100.00;60484.78;5032508;28;20021;-67
2022/05/09 09:01:11;;;;;;;8.75;2.53;;;;;;;-145.18;100.00;60484.78;5040294;28;20369;-67
2022/05/09 09:03:40;;;;;;;6.63;2.30;;;;;;;-145.18;100.00;60484.78;5032629;28;20488;-67
2022/05/09 09:06:31;;;;;;;7.50;2.22;;;;;;;-145.18;100.00;60484.78;5043885;28;20028;-67
2022/05/09 09:09:02;;;;;;;6.47;1.83;;;;;;;-145.18;100.00;60484.78;5036928;28;20440;-67
2022/05/09 09:11:59;;;;;;;8.63;2.15;;;;;;;-145.18;100.00;60484.78;5033140;28;20033;-67
2022/05/09 09:14:42;;;;;;;8.70;2.33;;;;;;;-145.18;100.00;60484.78;5044995;28;20017;-67
2022/05/09 09:17:33;;;;;;;11.20;2.08;;;;;;;-145.18;100.00;60484.78;5031618;28;20044;-67
2022/05/09 09:20:14;;;;;;;6.97;2.00;;;;;;;-145.18;100.00;60484.78;5049806;28;21241;-67
2022/05/09 09:23:05;;;;;;;7.32;2.10;;;;;;;-145.18;100.00;60484.78;5032090;28;20038;-67
2022/05/09 09:25:35;;;;;;;5.07;1.77;;;;;;;-145.18;100.00;60484.78;5039550;28;20061;-67
2022/05/09 09:28:18;;;;;;;5.38;2.20;;;;;;;-145.18;100.00;60484.78;5031785;28;20369;-67
2022/05/09 09:30:46;;;;;;;7.80;1.88;;;;;;;-145.18;100.00;60484.78;5040085;28;20033;-67
2022/05/09 09:33:14;;;;;;;7.03;1.85;;;;;;;-145.18;100.00;60484.78;5041867;28;20063;-67
2022/05/09 09:36:00;;;;;;;5.97;1.83;;;;;;;-145.18;100.00;60484.78;5035345;28;20041;-67
2022/05/09 09:38:40;;;;;;;9.82;2.08;;;;;;;-145.18;100.00;60484.78;5031389;28;20030;-67
2022/05/09 09:41:18;;;;;;;6.40;2.10;;;;;;;-145.18;100.00;60484.78;5032124;28;20036;-67
2022/05/09 09:43:45;;;;;;;6.78;1.80;;;;;;;-145.18;100.00;60484.78;5031426;28;20063;-67
2022/05/09 09:46:10;;;;;;;9.13;1.63;;;;;;;-145.18;100.00;60484.78;5034007;28;20496;-67
2022/05/09 09:48:36;;;;;;;6.75;1.73;;;;;;;-145.18;100.00;60484.78;5031128;28;20013;-67
2022/05/09 09:51:10;;;;;;;5.88;1.58;;;;;;;-145.18;100.00;60484.78;5035802;28;20029;-67
2022/05/09 09:54:00;;;;;;;5.50;1.80;;;;;;;-145.18;100.00;60484.78;5031523;28;20052;-67
2022/05/09 09:56:31;;;;;;;6.15;1.80;;;;;;;-145.18;100.00;60484.78;5035408;28;20393;-67
2022/05/09 09:59:18;;;;;;;6.18;1.80;;;;;;;-145.18;100.00;60484.78;5035933;28;20056;-67
2022/05/09 10:02:01;;;;;;;5.40;1.80;;;;;;;-145.18;100.00;60484.78;5034245;28;20032;-67
2022/05/09 10:04:28;;;;;;;6.30;1.77;;;;;;;-145.18;100.00;60484.78;5046130;28;20070;-67
2022/05/09 10:07:24;;;;;;;7.10;1.77;;;;;;;-145.18;100.00;60484.78;5044688;28;20120;-67
2022/05/09 10:10:12;;;;;;;9.77;1.90;;;;;;;-145.18;100.00;60484.78;5035928;28;20116;-67
2022/05/09 10:12:53;;;;;;;7.78;1.60;;;;;;;-145.18;100.00;60484.78;5031072;28;20036;-67
2022/05/09 10:15:22;;;;;;;7.30;1.67;;;;;;;-145.18;100.00;60484.78;5042564;28;20029;-67
2022/05/09 10:17:48;;;;;;;6.68;1.63;;;;;;;-145.18;100.00;60484.78;5046977;28;20036;-67
2022/05/09 10:20:33;;;;;;;7.53;1.83;;;;;;;-145.18;100.00;60484.78;5048852;28;20017;-67
2022/05/09 10:26:04;;;;;;;6.45;2.10;;;;;;;-145.18;100.00;60484.78;5036093;28;20463;-67
2022/05/09 10:28:34;;;;;;;6.22;1.73;;;;;;;-145.18;100.00;60484.78;5046126;28;20021;-67
2022/05/09 10:31:10;;;;;;;5.78;1.55;;;;;;;-145.18;100.00;60484.78;5032278;28;20072;-67
2022/05/09 10:33:44;;;;;;;7.88;2.15;;;;;;;-145.18;100.00;60484.78;5030960;28;20029;-67
2022/05/09 10:36:24;;;;;;;7.47;2.05;;;;;;;-145.18;100.00;60484.78;5033225;28;20045;-67
2022/05/09 10:39:02;;;;;;;5.50;1.88;;;;;;;-145.18;100.00;60484.78;5035728;28;20477;-67
2022/05/09 10:41:49;;;;;;;8.27;2.20;;;;;;;-145.18;100.00;60484.78;5035521;28;20036;-67
2022/05/09 10:44:34;;;;;;;5.25;1.90;;;;;;;-145.18;100.00;60484.78;5038577;28;20024;-67
2022/05/09 10:47:21;;;;;;;5.85;1.70;;;;;;;-145.18;100.00;60484.78;5032809;28;20024;-67
2022/05/09 10:49:54;;;;;;;7.57;2.08;;;;;;;-145.18;100.00;60484.78;5036467;28;20029;-67
2022/05/09 10:52:28;;;;;;;4.47;1.88;;;;;;;-145.18;100.00;60484.78;5031797;28;20036;-67
2022/05/09 10:55:22;;;;;;;8.73;1.90;;;;;;;-145.18;100.00;60484.78;5030947;28;20441;-67
2022/05/09 10:58:18;;;;;;;7.30;1.80;;;;;;;-145.18;100.00;60484.78;5046177;28;20048;-67
2022/05/09 11:00:51;;;;;;;8.57;1.70;;;;;;;-145.18;100.00;60484.78;5038241;28;20178;-67
2022/05/09 11:03:37;;;;;;;7.45;2.00;;;;;;;-145.18;100.00;60484.78;5030282;28;20057;-67
2022/05/09 11:06:17;;;;;;;4.95;1.60;;;;;;;-145.18;100.00;60484.78;5033060;28;20132;-68
2022/05/09 11:09:12;;;;;;;6.50;2.00;;;;;;;-145.18;100.00;60484.78;5030199;28;20025;-68
2022/05/09 11:12:01;;;;;;;7.60;1.88;;;;;;;-145.18;100.00;60484.78;5034188;28;20117;-68
2022/05/09 11:14:58;;;;;;;7.55;1.70;;;;;;;-145.18;100.00;60484.78;5041829;28;20484;-68
2022/05/09 11:18:02;;;;;;;7.75;1.88;;;;;;;-145.18;100.00;60484.78;5048637;28;20074;-68
2022/05/09 11:20:28;;;;;;;8.68;2.08;;;;;;;-145.18;100.00;60484.78;5045250;28;20095;-68
2022/05/09 11:22:59;;;;;;;8.15;1.73;;;;;;;-145.18;100.00;60484.78;5030554;28;20026;-68
2022/05/09 11:25:44;;;;;;;7.22;1.55;;;;;;;-145.18;100.00;60484.78;5046996;28;20094;-68